Time;durP1;ratioP1;P1;durP2;ratioP2;P2;SDS_P1;SDS_P2;PMS_P1;PMS_P2;Temp;Humidity;BMP_temperature;BMP_pressure;BME280_temperature;BME280_humidity;BME280_pressure;Samples;Min_cycle;Max_cycle;Signal;HPM_P1;HPM_P2
2023/08/22 00:01:03;;;;;;;11.38;5.50;;;;;;;22.05;100.00;99098.69;5092172;28;20025;-74
2023/08/22 00:03:29;;;;;;;7.60;5.47;;;;;;;21.95;100.00;99090.41;5091647;28;20039;-73
2023/08/22 00:05:55;;;;;;;11.63;4.97;;;;;;;21.98;100.00;99101.72;5061194;28;20020;-74
2023/08/22 00:08:21;;;;;;;11.32;4.93;;;;;;;21.99;100.00;99100.59;5090804;28;20061;-74
2023/08/22 00:10:46;;;;;;;13.50;5.15;;;;;;;21.89;100.00;99092.31;5076994;28;20479;-74
2023/08/22 00:13:11;;;;;;;6.57;4.85;;;;;;;21.89;100.00;99098.63;5089964;28;20476;-74
2023/08/22 00:15:36;;;;;;;7.72;4.40;;;;;;;21.84;100.00;99100.56;5090293;28;20031;-74
2023/08/22 00:18:02;;;;;;;5.72;4.47;;;;;;;21.86;100.00;99101.13;5084186;28;20370;-73
2023/08/22 00:20:27;;;;;;;11.02;5.28;;;;;;;21.86;100.00;99107.44;5076768;28;20147;-74
2023/08/22 00:22:53;;;;;;;6.32;4.85;;;;;;;21.78;100.00;99082.38;5070551;28;20383;-74
2023/08/22 00:25:18;;;;;;;10.55;4.82;;;;;;;21.73;100.00;99085.91;5082320;28;20465;-74
2023/08/22 00:27:43;;;;;;;11.68;5.25;;;;;;;21.71;100.00;99095.56;5066754;28;20055;-74
2023/08/22 00:30:09;;;;;;;10.18;4.95;;;;;;;21.54;100.00;99073.75;5087155;28;20028;-74
2023/08/22 00:32:34;;;;;;;10.07;5.15;;;;;;;21.61;100.00;99077.91;5089558;28;20457;-75
2023/08/22 00:35:00;;;;;;;8.70;4.50;;;;;;;21.60;100.00;99075.41;5086026;28;20027;-74
2023/08/22 00:37:26;;;;;;;7.43;4.85;;;;;;;21.64;100.00;99096.63;5064435;28;20501;-74
2023/08/22 00:39:52;;;;;;;8.38;4.65;;;;;;;21.63;100.00;99091.38;5088019;28;20028;-74
2023/08/22 00:42:18;;;;;;;7.20;4.50;;;;;;;21.57;100.00;99085.03;5087756;28;20032;-74
2023/08/22 00:44:43;;;;;;;7.20;4.60;;;;;;;21.59;100.00;99084.78;5085747;28;20134;-74
2023/08/22 00:47:08;;;;;;;9.63;4.75;;;;;;;21.54;100.00;99079.25;5094068;28;20518;-74
2023/08/22 00:49:34;;;;;;;11.25;4.82;;;;;;;21.53;100.00;99086.66;5084552;28;20032;-74
2023/08/22 00:52:02;;;;;;;10.30;4.97;;;;;;;21.47;100.00;99076.72;5091305;28;20027;-74
2023/08/22 00:54:29;;;;;;;8.40;4.90;;;;;;;21.52;100.00;99076.75;5089971;28;20573;-75
2023/08/22 00:56:56;;;;;;;8.68;5.50;;;;;;;21.43;100.00;99092.09;5066798;28;20028;-74
2023/08/22 00:59:21;;;;;;;9.02;4.88;;;;;;;21.32;100.00;99074.69;5067879;28;20024;-73
2023/08/22 01:01:47;;;;;;;10.32;5.07;;;;;;;21.34;100.00;99079.94;5082220;28;20031;-73
2023/08/22 01:04:12;;;;;;;6.75;5.03;;;;;;;21.26;100.00;99080.44;5085030;28;20025;-74
2023/08/22 01:07:16;;;;;;;9.27;5.60;;;;;;;21.32;100.00;99087.63;5088001;28;20028;-74
2023/08/22 01:09:49;;;;;;;11.02;5.57;;;;;;;21.29;100.00;99085.41;5085797;28;20097;-74
2023/08/22 01:12:49;;;;;;;9.25;5.13;;;;;;;21.27;100.00;99088.41;5063958;28;20077;-74
2023/08/22 01:15:28;;;;;;;8.00;4.95;;;;;;;21.20;100.00;99083.16;5081657;28;20020;-74
2023/08/22 01:17:54;;;;;;;;;;;;;;;21.23;100.00;99093.63;5084935;28;20490;-74
2023/08/22 01:20:21;;;;;;;9.82;5.10;;;;;;;21.20;100.00;99083.16;5077548;28;20019;-74
2023/08/22 01:22:46;;;;;;;8.20;4.82;;;;;;;21.13;100.00;99088.06;5083732;28;20107;-74
2023/08/22 01:25:11;;;;;;;9.40;4.50;;;;;;;21.11;100.00;99084.75;5055887;28;20048;-74
2023/08/22 01:28:01;;;;;;;9.80;5.10;;;;;;;21.11;100.00;99078.41;5090776;28;20027;-74
2023/08/22 01:30:33;;;;;;;8.98;5.00;;;;;;;20.96;100.00;99060.72;5090559;28;20019;-73
2023/08/22 01:33:04;;;;;;;7.55;5.45;;;;;;;21.08;100.00;99085.28;5066887;28;20021;-74
2023/08/22 01:35:31;;;;;;;7.35;4.13;;;;;;;21.05;100.00;99085.00;5069254;28;20412;-73
2023/08/22 01:37:57;;;;;;;10.48;4.60;;;;;;;21.09;100.00;99081.44;5083923;28;20024;-74
2023/08/22 01:40:24;;;;;;;8.55;4.95;;;;;;;21.05;100.00;99091.31;5075086;28;20024;-74
2023/08/22 01:42:49;;;;;;;7.15;5.15;;;;;;;21.02;100.00;99091.84;5094327;28;20031;-74
2023/08/22 01:45:15;;;;;;;6.93;5.45;;;;;;;21.00;100.00;99096.78;5090999;28;20034;-75
2023/08/22 01:47:40;;;;;;;9.57;6.05;;;;;;;20.93;100.00;99083.28;5080239;28;20029;-74
2023/08/22 01:50:07;;;;;;;9.30;5.43;;;;;;;20.95;100.00;99077.50;5091379;28;20053;-74
2023/08/22 01:52:32;;;;;;;9.27;5.25;;;;;;;20.89;100.00;99081.31;5088809;28;20032;-74
2023/08/22 01:54:58;;;;;;;9.02;4.90;;;;;;;20.85;100.00;99080.16;5073546;28;20107;-74
2023/08/22 01:57:23;;;;;;;6.05;4.35;;;;;;;20.90;100.00;99078.28;5071605;28;20031;-74
2023/08/22 01:59:48;;;;;;;8.80;5.20;;;;;;;20.86;100.00;99081.84;5058461;28;20494;-74
2023/08/22 02:02:13;;;;;;;12.23;5.63;;;;;;;20.82;100.00;99086.19;5058407;28;20119;-74
2023/08/22 02:04:39;;;;;;;8.38;5.95;;;;;;;20.82;100.00;99087.03;5084870;28;20024;-74
2023/08/22 02:07:04;;;;;;;9.25;5.78;;;;;;;20.76;100.00;99080.66;5073998;28;20036;-74
2023/08/22 02:09:29;;;;;;;10.43;5.40;;;;;;;20.82;100.00;99088.94;5085945;28;20020;-74
2023/08/22 02:11:55;;;;;;;9.98;5.88;;;;;;;20.78;100.00;99086.72;5083245;28;20085;-75
2023/08/22 02:14:20;;;;;;;8.98;5.82;;;;;;;20.82;100.00;99094.44;5062975;28;20073;-74
2023/08/22 02:16:45;;;;;;;5.68;5.03;;;;;;;20.66;100.00;99077.00;5073390;28;20023;-74
2023/08/22 02:19:11;;;;;;;9.57;5.90;;;;;;;20.67;100.00;99087.75;5090349;28;20040;-74
2023/08/22 02:21:37;;;;;;;11.77;5.35;;;;;;;20.65;100.00;99091.84;5098586;28;20039;-74
2023/08/22 02:24:02;;;;;;;8.68;5.30;;;;;;;20.61;100.00;99085.19;5093459;28;20478;-74
2023/08/22 02:26:29;;;;;;;7.78;5.00;;;;;;;20.51;100.00;99083.16;5088261;28;20074;-74
2023/08/22 02:28:54;;;;;;;10.88;5.53;;;;;;;20.56;100.00;99095.06;5073017;28;20019;-74
2023/08/22 02:31:20;;;;;;;9.88;4.95;;;;;;;20.53;100.00;99095.56;5084544;28;20085;-74
2023/08/22 02:33:45;;;;;;;9.93;5.22;;;;;;;20.52;100.00;99085.66;5055041;28;20371;-74
2023/08/22 02:36:11;;;;;;;8.65;5.68;;;;;;;20.68;100.00;99097.63;5073931;28;20645;-74
2023/08/22 02:38:36;;;;;;;9.05;5.35;;;;;;;20.51;100.00;99072.16;5063017;28;20032;-74
2023/08/22 02:41:01;;;;;;;7.63;4.63;;;;;;;20.58;100.00;99090.13;5092281;28;20020;-74
2023/08/22 02:43:27;;;;;;;8.55;4.95;;;;;;;20.51;100.00;99077.66;5091452;28;20469;-74
2023/08/22 02:45:52;;;;;;;10.02;5.72;;;;;;;20.49;100.00;99077.13;5074259;28;20076;-74
2023/08/22 02:48:17;;;;;;;6.95;5.07;;;;;;;20.64;100.00;99085.50;5083316;28;20047;-74
2023/08/22 02:50:42;;;;;;;8.02;5.20;;;;;;;20.58;100.00;99092.88;5092449;28;20051;-74
2023/08/22 02:53:11;;;;;;;7.88;5.60;;;;;;;20.54;100.00;99082.66;5073600;28;20077;-74
2023/08/22 02:55:36;;;;;;;7.95;5.30;;;;;;;20.44;100.00;99077.06;5081936;28;20043;-74
2023/08/22 02:58:03;;;;;;;11.15;5.75;;;;;;;20.39;100.00;99080.59;5076449;28;20024;-74
2023/08/22 03:00:28;;;;;;;8.85;5.80;;;;;;;20.31;100.00;99084.63;5077584;28;20063;-74
2023/08/22 03:02:53;;;;;;;9.45;6.32;;;;;;;20.31;100.00;99089.31;5092635;28;20055;-74
2023/08/22 03:05:19;;;;;;;7.00;5.25;;;;;;;20.32;100.00;99088.22;5084390;28;20401;-74
2023/08/22 03:07:44;;;;;;;9.45;6.03;;;;;;;20.23;100.00;99076.88;5089259;28;20043;-83
2023/08/22 03:10:10;;;;;;;10.13;5.88;;;;;;;20.06;100.00;99062.41;5067238;28;20026;-82
2023/08/22 03:12:35;;;;;;;6.93;5.25;;;;;;;20.17;100.00;99086.13;5075036;28;20020;-83
2023/08/22 03:15:02;;;;;;;10.55;6.07;;;;;;;19.88;100.00;99047.94;5088953;28;20077;-84
2023/08/22 03:17:27;;;;;;;10.77;5.60;;;;;;;20.01;100.00;99070.59;5068616;28;20019;-85
2023/08/22 03:19:52;;;;;;;9.20;5.72;;;;;;;19.96;100.00;99054.06;5083899;28;20054;-85
2023/08/22 03:22:18;;;;;;;10.63;5.72;;;;;;;20.08;100.00;99071.22;5080303;28;20053;-85
2023/08/22 03:24:43;;;;;;;9.20;5.13;;;;;;;20.04;100.00;99081.06;5065955;28;20042;-79
2023/08/22 03:27:08;;;;;;;11.68;5.07;;;;;;;20.06;100.00;99085.19;5065543;28;20024;-80
2023/08/22 03:29:34;;;;;;;8.13;5.88;;;;;;;20.00;100.00;99075.25;5060018;28;20029;-82
2023/08/22 03:31:59;;;;;;;14.90;5.43;;;;;;;20.03;100.00;99087.66;5072556;28;20445;-81
2023/08/22 03:34:24;;;;;;;8.30;6.00;;;;;;;19.95;100.00;99082.63;5075581;28;20111;-82
2023/08/22 03:36:50;;;;;;;7.78;5.57;;;;;;;19.90;100.00;99075.97;5088310;28;20050;-81
2023/08/22 03:39:15;;;;;;;7.90;5.70;;;;;;;19.90;100.00;99089.69;5067849;28;20024;-82
2023/08/22 03:41:40;;;;;;;11.30;6.13;;;;;;;19.86;100.00;99099.56;5070298;28;20449;-81
2023/08/22 03:44:06;;;;;;;16.17;5.88;;;;;;;19.98;100.00;99099.41;5090861;28;20032;-80
2023/08/22 03:46:31;;;;;;;13.57;6.30;;;;;;;19.95;100.00;99104.59;5067456;28;20510;-77
2023/08/22 03:48:56;;;;;;;9.32;5.50;;;;;;;19.93;100.00;99102.09;5075061;28;20024;-79
2023/08/22 03:51:22;;;;;;;6.40;5.45;;;;;;;19.82;100.00;99081.91;5089890;28;20025;-79
2023/08/22 03:53:47;;;;;;;9.60;5.45;;;;;;;19.93;100.00;99085.59;5075647;28;20052;-81
2023/08/22 03:56:12;;;;;;;8.15;5.40;;;;;;;19.95;100.00;99099.09;5085360;28;20047;-80
2023/08/22 03:58:37;;;;;;;8.75;5.85;;;;;;;19.87;100.00;99103.94;5064414;28;20389;-72
2023/08/22 04:01:03;;;;;;;9.57;5.82;;;;;;;19.71;100.00;99093.88;5069951;28;20367;-72
2023/08/22 04:03:29;;;;;;;10.85;6.18;;;;;;;19.69;100.00;99096.03;5085344;28;20059;-72
2023/08/22 04:05:55;;;;;;;9.73;5.57;;;;;;;19.45;100.00;99074.31;5083589;28;20027;-73
2023/08/22 04:08:20;;;;;;;9.80;6.13;;;;;;;19.49;100.00;99093.81;5090499;28;20119;-73
2023/08/22 04:10:46;;;;;;;8.95;6.20;;;;;;;19.60;100.00;99108.53;5085872;28;20024;-72
2023/08/22 04:13:11;;;;;;;10.68;6.18;;;;;;;19.59;100.00;99110.44;5094717;28;20024;-72
2023/08/22 04:15:39;;;;;;;10.80;7.05;;;;;;;19.52;100.00;99111.69;5087953;28;20521;-73
2023/08/22 04:18:05;;;;;;;9.35;7.07;;;;;;;19.58;100.00;99118.94;5089865;28;20028;-73
2023/08/22 04:20:30;;;;;;;13.73;6.65;;;;;;;19.57;100.00;99122.75;5078665;28;20391;-73
2023/08/22 04:22:55;;;;;;;9.43;6.72;;;;;;;19.57;100.00;99126.34;5094145;28;20401;-73
2023/08/22 04:25:20;;;;;;;10.40;7.13;;;;;;;19.49;100.00;99116.63;5085551;28;20133;-73
2023/08/22 04:27:46;;;;;;;12.23;6.47;;;;;;;19.53;100.00;99135.34;5067971;28;20047;-73
2023/08/22 04:30:11;;;;;;;11.02;6.13;;;;;;;19.52;100.00;99126.28;5093194;28;20500;-84
2023/08/22 04:32:36;;;;;;;12.27;6.97;;;;;;;19.53;100.00;99133.41;5084483;28;20154;-78
2023/08/22 04:35:02;;;;;;;9.15;6.15;;;;;;;19.60;100.00;99131.31;5080899;28;20028;-74
2023/08/22 04:37:28;;;;;;;11.95;6.95;;;;;;;19.61;100.00;99122.00;5082640;28;20024;-80
2023/08/22 04:39:54;;;;;;;12.38;6.47;;;;;;;19.69;100.00;99134.47;5069866;28;20028;-75
2023/08/22 04:42:19;;;;;;;9.73;5.85;;;;;;;19.66;100.00;99115.75;5087739;28;20043;-76
2023/08/22 04:44:45;;;;;;;11.10;6.60;;;;;;;19.66;100.00;99122.09;5095851;28;20055;-76
2023/08/22 04:47:10;;;;;;;12.52;6.32;;;;;;;19.71;100.00;99124.06;5060725;28;20107;-76
2023/08/22 04:49:35;;;;;;;9.30;5.78;;;;;;;19.78;100.00;99143.94;5065818;28;20032;-79
2023/08/22 04:52:01;;;;;;;11.10;6.18;;;;;;;19.64;100.00;99123.41;5066570;28;20033;-74
2023/08/22 04:54:26;;;;;;;7.82;5.60;;;;;;;19.66;100.00;99126.72;5085063;28;20032;-77
2023/08/22 04:56:51;;;;;;;8.80;6.57;;;;;;;19.73;100.00;99127.41;5075900;28;20029;-75
2023/08/22 04:59:17;;;;;;;12.63;6.05;;;;;;;19.79;100.00;99120.06;5095837;28;20040;-75
2023/08/22 05:01:42;;;;;;;9.52;5.85;;;;;;;19.89;100.00;99134.72;5087292;28;20024;-75
2023/08/22 05:04:07;;;;;;;12.25;6.03;;;;;;;19.93;100.00;99121.31;5085744;28;20485;-76
2023/08/22 05:06:33;;;;;;;13.80;6.28;;;;;;;20.02;100.00;99121.69;5085140;28;20572;-74
2023/08/22 05:08:58;;;;;;;11.18;6.32;;;;;;;20.18;100.00;99131.75;5081657;28;20047;-74
2023/08/22 05:11:23;;;;;;;11.02;6.43;;;;;;;20.20;100.00;99123.25;5083128;28;20097;-73
2023/08/22 05:13:49;;;;;;;11.13;5.90;;;;;;;20.25;100.00;99121.41;5076246;28;20035;-70
2023/08/22 05:16:14;;;;;;;9.00;5.80;;;;;;;20.36;100.00;99127.84;5065754;28;20028;-70
2023/08/22 05:18:39;;;;;;;11.07;6.10;;;;;;;20.45;100.00;99122.69;5087482;28;20059;-76
2023/08/22 05:21:05;;;;;;;8.75;5.70;;;;;;;20.57;100.00;99117.91;5089161;28;20482;-76
2023/08/22 05:23:31;;;;;;;10.75;5.97;;;;;;;20.61;100.00;99108.03;5065741;28;20024;-82
2023/08/22 05:25:56;;;;;;;8.25;5.75;;;;;;;20.85;100.00;99115.91;5068340;28;20478;-78
2023/08/22 05:28:21;;;;;;;9.43;5.80;;;;;;;20.94;100.00;99111.59;5074885;28;20034;-80
2023/08/22 05:30:47;;;;;;;7.75;5.85;;;;;;;21.11;100.00;99114.19;5090636;28;20031;-75
2023/08/22 05:33:12;;;;;;;16.27;5.70;;;;;;;21.47;100.00;99115.25;5093007;28;20495;-73
2023/08/22 05:35:37;;;;;;;11.23;5.72;;;;;;;21.63;100.00;99105.97;5093351;28;20442;-71
2023/08/22 05:38:03;;;;;;;9.68;5.55;;;;;;;21.89;100.00;99095.06;5091459;28;20560;-71
2023/08/22 05:40:29;;;;;;;7.60;5.50;;;;;;;22.07;100.00;99097.31;5064253;28;20020;-71
2023/08/22 05:42:55;;;;;;;10.85;5.65;;;;;;;22.29;100.00;99077.00;5082416;28;20039;-70
2023/08/22 05:45:20;;;;;;;8.85;4.90;;;;;;;22.62;100.00;99097.72;5088372;28;20393;-71
2023/08/22 05:47:45;;;;;;;9.50;5.22;;;;;;;22.87;100.00;99099.66;5090963;28;20066;-70
2023/08/22 05:50:11;;;;;;;9.77;5.35;;;;;;;23.13;100.00;99078.41;5084528;28;20047;-71
2023/08/22 05:52:37;;;;;;;10.63;5.25;;;;;;;23.30;100.00;99086.34;5071713;28;20036;-71
2023/08/22 05:55:03;;;;;;;12.48;4.80;;;;;;;23.49;100.00;99071.94;5085807;28;20024;-71
2023/08/22 05:57:29;;;;;;;8.85;6.05;;;;;;;24.06;100.00;99089.94;5084610;28;20024;-71
2023/08/22 05:59:54;;;;;;;7.32;4.78;;;;;;;25.57;100.00;99071.50;5084748;28;20050;-70
2023/08/22 06:02:19;;;;;;;6.75;4.40;;;;;;;27.82;100.00;99071.75;5066507;28;20051;-70
2023/08/22 06:04:45;;;;;;;11.50;4.55;;;;;;;29.58;100.00;99067.94;5081228;28;21365;-70
2023/08/22 06:07:10;;;;;;;9.40;4.90;;;;;;;30.45;100.00;99065.38;5081021;28;20032;-70
2023/08/22 06:09:36;;;;;;;10.23;4.60;;;;;;;32.02;100.00;99069.34;5089742;28;20077;-71
2023/08/22 06:12:01;;;;;;;9.07;5.03;;;;;;;32.81;100.00;99065.91;5087649;28;20035;-71
2023/08/22 06:14:28;;;;;;;9.25;5.20;;;;;;;33.14;100.00;99071.50;5084521;28;20020;-71
2023/08/22 06:16:53;;;;;;;9.52;5.65;;;;;;;33.33;100.00;99073.78;5082600;28;20029;-70
2023/08/22 06:19:19;;;;;;;10.52;5.72;;;;;;;33.18;100.00;99066.84;5054776;28;20111;-70
2023/08/22 06:21:44;;;;;;;8.07;5.40;;;;;;;34.28;89.24;99066.03;5085278;28;20359;-71
2023/08/22 06:24:10;;;;;;;10.68;5.60;;;;;;;34.54;87.33;99047.94;5071236;28;20024;-71
2023/08/22 06:26:35;;;;;;;10.20;5.70;;;;;;;34.94;82.18;99059.13;5080967;28;20764;-71
2023/08/22 06:29:01;;;;;;;10.00;5.63;;;;;;;35.48;75.20;99060.56;5077275;28;20699;-71
2023/08/22 06:31:26;;;;;;;12.73;5.05;;;;;;;36.26;71.67;99041.09;5082877;28;20028;-71
2023/08/22 06:33:51;;;;;;;11.55;5.63;;;;;;;37.14;66.87;99061.03;5065600;28;20024;-70
2023/08/22 06:36:16;;;;;;;8.68;5.22;;;;;;;36.70;66.18;99055.72;5080950;28;20024;-71
2023/08/22 06:38:42;;;;;;;7.50;5.18;;;;;;;36.53;67.92;99070.25;5080808;28;20096;-71
2023/08/22 06:41:07;;;;;;;7.35;4.75;;;;;;;36.70;67.81;99067.00;5081374;28;20478;-71
2023/08/22 06:43:33;;;;;;;11.75;5.22;;;;;;;36.26;67.57;99058.78;5072243;28;20023;-71
2023/08/22 06:45:59;;;;;;;7.90;4.32;;;;;;;38.01;63.44;99072.56;5083507;28;20431;-71
2023/08/22 06:48:27;;;;;;;9.70;5.10;;;;;;;38.19;60.56;99067.19;5090050;28;20028;-71
2023/08/22 06:50:52;;;;;;;8.40;5.45;;;;;;;38.06;60.42;99060.13;5076011;28;20020;-71
2023/08/22 06:53:18;;;;;;;9.15;5.30;;;;;;;39.02;57.73;99069.06;5072472;28;20035;-71
2023/08/22 06:55:47;;;;;;;9.70;5.65;;;;;;;38.46;57.59;99065.16;5068162;28;20370;-71
2023/08/22 06:58:13;;;;;;;12.70;5.03;;;;;;;38.32;60.29;99081.91;5084592;28;20090;-71
2023/08/22 07:00:39;;;;;;;8.48;5.13;;;;;;;38.63;58.92;99077.88;5085377;28;20440;-71
2023/08/22 07:03:04;;;;;;;8.20;4.45;;;;;;;39.38;56.85;99081.59;5083789;28;20081;-71
2023/08/22 07:05:31;;;;;;;8.20;4.80;;;;;;;39.45;56.26;99075.97;5077981;28;20139;-70
2023/08/22 07:07:56;;;;;;;9.48;4.43;;;;;;;39.45;56.64;99075.97;5080017;28;20031;-71
2023/08/22 07:10:22;;;;;;;11.60;5.30;;;;;;;38.36;57.69;99072.28;5072230;28;20713;-75
2023/08/22 07:12:47;;;;;;;6.60;4.70;;;;;;;38.96;55.25;99082.75;5079745;28;20040;-71
2023/08/22 07:15:13;;;;;;;7.35;4.28;;;;;;;39.08;54.89;99086.50;5079321;28;20020;-71
2023/08/22 07:17:38;;;;;;;7.18;4.45;;;;;;;38.73;56.29;99093.38;5085517;28;20407;-71
2023/08/22 07:20:04;;;;;;;9.55;5.20;;;;;;;39.37;54.61;99084.78;5086171;28;20028;-71
2023/08/22 07:22:30;;;;;;;9.00;4.20;;;;;;;39.85;53.39;99082.81;5090441;28;20032;-71
2023/08/22 07:24:55;;;;;;;6.75;4.63;;;;;;;40.28;52.54;99077.41;5090919;28;20477;-71
2023/08/22 07:27:22;;;;;;;7.95;4.85;;;;;;;40.14;52.10;99077.31;5080690;28;20488;-71
2023/08/22 07:29:47;;;;;;;5.63;3.92;;;;;;;40.91;50.66;99085.81;5061860;28;20036;-71
2023/08/22 07:32:13;;;;;;;7.10;3.92;;;;;;;41.31;49.90;99081.03;5088828;28;20041;-77
2023/08/22 07:34:38;;;;;;;9.10;3.85;;;;;;;41.78;48.66;99084.72;5081753;28;20039;-78
2023/08/22 07:37:03;;;;;;;5.47;3.85;;;;;;;41.54;49.35;99081.50;5082802;28;20444;-77
2023/08/22 07:39:29;;;;;;;8.13;3.72;;;;;;;41.77;48.64;99083.91;5063749;28;20048;-79
2023/08/22 07:41:54;;;;;;;4.93;3.20;;;;;;;42.34;47.32;99076.50;5083091;28;20048;-74
2023/08/22 07:44:20;;;;;;;5.95;3.80;;;;;;;41.68;48.03;99082.69;5078685;28;20044;-79
2023/08/22 07:46:45;;;;;;;6.28;3.90;;;;;;;43.02;45.55;99087.63;5062919;28;20104;-76
2023/08/22 07:49:10;;;;;;;6.93;3.60;;;;;;;41.94;46.19;99102.19;5083672;28;20032;-77
2023/08/22 07:51:36;;;;;;;10.98;3.53;;;;;;;41.54;47.24;99090.00;5082491;28;20078;-77
2023/08/22 07:54:02;;;;;;;5.75;3.25;;;;;;;41.07;48.49;99099.63;5076695;28;20024;-77
2023/08/22 07:56:27;;;;;;;6.18;3.88;;;;;;;42.89;45.13;99092.97;5083348;28;20083;-81
2023/08/22 07:58:53;;;;;;;4.60;3.50;;;;;;;42.71;45.12;99097.91;5084401;28;20505;-80
2023/08/22 08:01:18;;;;;;;6.45;3.50;;;;;;;42.61;45.47;99088.22;5089869;28;20016;-79
2023/08/22 08:03:43;;;;;;;6.80;3.75;;;;;;;43.35;43.93;99099.66;5061065;28;20112;-73
2023/08/22 08:06:09;;;;;;;6.33;3.23;;;;;;;44.39;42.30;99100.38;5076079;28;20317;-73
2023/08/22 08:08:34;;;;;;;7.40;3.55;;;;;;;42.22;44.71;99101.31;5082584;28;21249;-73
2023/08/22 08:11:00;;;;;;;5.63;3.65;;;;;;;42.66;44.19;99096.34;5087506;28;20619;-76
2023/08/22 08:13:25;;;;;;;7.55;3.00;;;;;;;42.71;43.91;99098.75;5063647;28;20111;-74
2023/08/22 08:15:51;;;;;;;5.32;3.35;;;;;;;41.99;45.22;99090.41;5085244;28;20032;-73
2023/08/22 08:18:16;;;;;;;5.55;3.00;;;;;;;43.33;44.04;99094.34;5082523;28;20490;-72
2023/08/22 08:20:43;;;;;;;4.85;2.92;;;;;;;43.86;42.86;99093.16;5081762;28;20023;-75
2023/08/22 08:23:10;;;;;;;4.75;3.00;;;;;;;44.22;43.30;99092.78;5079638;28;20028;-72
2023/08/22 08:25:35;;;;;;;7.75;3.10;;;;;;;44.14;42.42;99085.53;5098880;28;20020;-77
2023/08/22 08:28:01;;;;;;;6.47;3.03;;;;;;;41.87;43.97;99085.13;5085031;28;20025;-75
2023/08/22 08:30:26;;;;;;;5.37;2.93;;;;;;;42.53;43.95;99092.34;5087590;28;20036;-72
2023/08/22 08:32:51;;;;;;;5.67;3.43;;;;;;;43.52;42.70;99090.13;5086901;28;20835;-72
2023/08/22 08:35:17;;;;;;;7.60;3.42;;;;;;;41.78;44.30;99094.06;5081390;28;20780;-72
2023/08/22 08:37:42;;;;;;;5.78;3.17;;;;;;;44.03;42.50;99094.22;5090234;28;20477;-72
2023/08/22 08:40:08;;;;;;;8.13;3.00;;;;;;;45.41;41.26;99080.66;5092591;28;20073;-73
2023/08/22 08:42:36;;;;;;;7.05;2.47;;;;;;;45.73;40.43;99082.19;5087580;28;20173;-73
2023/08/22 08:45:03;;;;;;;5.93;2.90;;;;;;;44.11;40.55;99086.41;5090401;28;20100;-73
2023/08/22 08:47:30;;;;;;;5.63;2.50;;;;;;;45.42;41.98;99085.94;5089782;28;20028;-74
2023/08/22 08:49:57;;;;;;;3.25;2.60;;;;;;;44.89;39.95;99087.53;5081465;28;20024;-72
2023/08/22 08:52:22;;;;;;;6.05;2.33;;;;;;;45.41;41.20;99087.19;5085195;28;20076;-70
2023/08/22 08:54:48;;;;;;;5.15;2.55;;;;;;;45.82;39.28;99082.41;5086351;28;20040;-70
2023/08/22 08:57:14;;;;;;;3.50;2.22;;;;;;;47.11;38.96;99086.41;5091282;28;20028;-71
2023/08/22 08:59:41;;;;;;;4.10;2.05;;;;;;;46.97;38.52;99067.44;5084365;28;20341;-73
2023/08/22 09:02:14;;;;;;;5.50;2.45;;;;;;;47.14;36.88;99074.06;5083175;28;20158;-73
2023/08/22 09:04:40;;;;;;;6.85;2.40;;;;;;;47.05;37.66;99085.28;5087577;28;20432;-74
2023/08/22 09:07:06;;;;;;;5.43;2.00;;;;;;;46.30;38.67;99086.84;5087503;28;20024;-73
2023/08/22 09:09:35;;;;;;;3.13;2.10;;;;;;;46.45;37.82;99079.63;5093221;28;20476;-74
2023/08/22 09:12:06;;;;;;;4.85;2.10;;;;;;;48.14;36.06;99075.66;5087837;28;20031;-75
2023/08/22 09:14:31;;;;;;;3.83;1.80;;;;;;;48.92;35.08;99075.44;5088406;28;20042;-81
2023/08/22 09:17:01;;;;;;;6.43;1.80;;;;;;;48.95;34.78;99073.72;5066111;28;20099;-76
2023/08/22 09:19:30;;;;;;;6.13;2.08;;;;;;;47.64;35.47;99072.84;5067269;28;20020;-85
2023/08/22 09:22:00;;;;;;;2.55;1.70;;;;;;;48.41;34.82;99078.16;5076094;28;20490;-76
2023/08/22 09:24:27;;;;;;;4.20;1.73;;;;;;;48.43;34.51;99076.47;5097103;28;20020;-80
2023/08/22 09:26:52;;;;;;;4.60;2.17;;;;;;;48.52;33.94;99060.63;5083013;28;20042;-72
2023/08/22 09:29:26;;;;;;;6.30;2.30;;;;;;;49.31;33.70;99065.59;5071017;28;20032;-71
2023/08/22 09:31:57;;;;;;;2.95;1.50;;;;;;;48.33;33.68;99057.47;5069259;28;20020;-71
2023/08/22 09:34:22;;;;;;;2.97;1.52;;;;;;;49.75;32.83;99065.75;5085669;28;20066;-72
2023/08/22 09:36:47;;;;;;;4.73;1.90;;;;;;;49.32;33.89;99055.69;5066126;28;20032;-72
2023/08/22 09:39:18;;;;;;;3.25;1.65;;;;;;;49.63;32.40;99066.59;5086731;28;20032;-72
2023/08/22 09:41:43;;;;;;;2.90;1.50;;;;;;;49.96;31.55;99061.31;5084825;28;20023;-72
2023/08/22 09:44:10;;;;;;;3.73;1.80;;;;;;;49.84;31.84;99061.34;5082386;28;20030;-70
2023/08/22 09:46:39;;;;;;;5.18;1.80;;;;;;;48.96;32.35;99055.22;5078833;28;20028;-72
2023/08/22 09:49:06;;;;;;;4.40;1.90;;;;;;;49.23;33.09;99057.63;5082113;28;20059;-72
2023/08/22 09:51:32;;;;;;;3.22;1.90;;;;;;;50.18;31.90;99064.25;5086724;28;20038;-70
2023/08/22 09:54:03;;;;;;;2.30;1.70;;;;;;;50.05;31.91;99054.03;5087830;28;20489;-73
2023/08/22 09:56:31;;;;;;;2.80;1.75;;;;;;;48.39;33.71;99052.78;5082413;28;20107;-71
2023/08/22 09:58:57;;;;;;;2.22;1.70;;;;;;;49.22;33.26;99053.16;5085270;28;20047;-72
2023/08/22 10:01:23;;;;;;;7.97;2.03;;;;;;;48.72;33.26;99052.66;5088194;28;20125;-73
2023/08/22 10:03:53;;;;;;;4.82;1.60;;;;;;;49.19;31.40;99045.47;5084882;28;20118;-72
2023/08/22 10:06:19;;;;;;;5.60;1.50;;;;;;;50.04;31.52;99047.47;5092392;28;20016;-72
2023/08/22 10:08:45;;;;;;;;;;;;;;;49.02;31.62;99042.69;5088500;28;20035;-73
2023/08/22 10:11:16;;;;;;;2.50;1.70;;;;;;;49.27;32.81;99029.59;5086672;28;19920;-73
2023/08/22 10:13:43;;;;;;;5.28;1.80;;;;;;;49.47;31.78;99037.94;5061976;28;20386;-72
2023/08/22 10:16:08;;;;;;;;;;;;;;;50.20;31.42;99046.47;5083603;28;20421;-72
2023/08/22 10:18:34;;;;;;;4.88;2.00;;;;;;;49.83;31.71;99030.97;5083378;28;20070;-72
2023/08/22 10:20:59;;;;;;;5.10;1.70;;;;;;;50.63;31.03;99042.00;5079786;28;20087;-75
2023/08/22 10:23:51;;;;;;;3.47;1.60;;;;;;;50.27;31.04;99040.47;5063442;28;20490;-72
2023/08/22 10:26:16;;;;;;;2.85;1.73;;;;;;;50.31;31.25;99040.31;5073919;28;20052;-73
2023/08/22 10:28:42;;;;;;;5.23;1.67;;;;;;;50.16;30.33;99038.00;5082373;28;20041;-73
2023/08/22 10:31:07;;;;;;;2.93;1.77;;;;;;;49.86;30.59;99030.03;5064901;28;20113;-73
2023/08/22 10:33:33;;;;;;;2.20;1.60;;;;;;;50.11;31.10;99035.72;5086895;28;20020;-72
2023/08/22 10:36:15;;;;;;;2.33;1.80;;;;;;;50.90;30.56;99029.84;5068941;28;20023;-73
2023/08/22 10:38:55;;;;;;;2.10;1.60;;;;;;;50.93;30.58;99023.13;5079257;28;20042;-73
2023/08/22 10:41:23;;;;;;;3.88;1.60;;;;;;;50.52;30.95;99030.09;5080021;28;20026;-73
2023/08/22 10:43:49;;;;;;;5.05;1.92;;;;;;;49.31;31.14;99033.16;5068525;28;20035;-73
2023/08/22 10:46:14;;;;;;;3.67;2.00;;;;;;;50.32;30.64;99030.47;5080061;28;20036;-73
2023/08/22 10:48:39;;;;;;;3.07;1.60;;;;;;;50.20;31.85;99029.22;5077988;28;20119;-72
2023/08/22 10:51:07;;;;;;;4.03;2.00;;;;;;;50.15;31.51;99038.44;5084483;28;20028;-72
2023/08/22 10:53:43;;;;;;;2.42;1.80;;;;;;;50.88;30.91;99040.22;5080517;28;20020;-72
2023/08/22 10:56:23;;;;;;;;;;;;;;;49.77;31.14;99025.81;5081936;28;20047;-72
2023/08/22 10:58:59;;;;;;;2.45;1.52;;;;;;;50.47;31.12;99025.75;5083011;28;19933;-73
2023/08/22 11:01:25;;;;;;;;;;;;;;;50.25;30.89;99022.06;5068851;28;20047;-73
2023/08/22 11:03:51;;;;;;;5.50;1.70;;;;;;;50.51;30.71;99022.72;5087485;28;20366;-77
2023/08/22 11:06:18;;;;;;;4.00;1.97;;;;;;;50.11;30.72;99011.91;5068648;28;20486;-76
2023/08/22 11:08:44;;;;;;;2.90;1.80;;;;;;;49.92;31.63;99011.72;5065451;28;20274;-71
2023/08/22 11:11:11;;;;;;;1.98;1.52;;;;;;;50.16;30.64;99017.84;5080598;28;20023;-71
2023/08/22 11:13:38;;;;;;;2.75;1.60;;;;;;;48.94;30.28;99029.81;5086181;28;20382;-72
2023/08/22 11:16:11;;;;;;;4.63;1.73;;;;;;;49.07;31.27;99012.56;5087091;28;20046;-73
2023/08/22 11:18:37;;;;;;;2.85;1.67;;;;;;;47.96;31.86;99008.09;5080606;28;20039;-72
2023/08/22 11:21:03;;;;;;;2.57;1.53;;;;;;;49.74;31.54;99018.13;5068601;28;20024;-72
2023/08/22 11:23:36;;;;;;;2.85;1.77;;;;;;;49.70;29.67;99008.81;5086668;28;20382;-71
2023/08/22 11:26:02;;;;;;;1.88;1.40;;;;;;;50.12;30.61;99020.03;5084668;28;20074;-73